sensor_id;sensor_type;location;lat;lon;timestamp;P1;durP1;ratioP1;P2;durP2;ratioP2
43662;SDS011;74813;56.104;40.358;2024-01-11T00:01:50;14.43;;;5.57;;
43662;SDS011;74813;56.104;40.358;2024-01-11T00:04:22;15.20;;;6.35;;
43662;SDS011;74813;56.104;40.358;2024-01-11T00:06:54;15.07;;;5.07;;
43662;SDS011;74813;56.104;40.358;2024-01-11T00:09:27;17.27;;;6.07;;
43662;SDS011;74813;56.104;40.358;2024-01-11T00:11:59;18.45;;;5.47;;
43662;SDS011;74813;56.104;40.358;2024-01-11T00:14:31;13.43;;;5.50;;
43662;SDS011;74813;56.104;40.358;2024-01-11T00:17:04;14.57;;;5.05;;
43662;SDS011;74813;56.104;40.358;2024-01-11T00:19:36;12.15;;;3.92;;
43662;SDS011;74813;56.104;40.358;2024-01-11T00:22:08;18.20;;;5.25;;
43662;SDS011;74813;56.104;40.358;2024-01-11T00:24:41;9.93;;;4.10;;
43662;SDS011;74813;56.104;40.358;2024-01-11T00:27:13;15.45;;;4.63;;
43662;SDS011;74813;56.104;40.358;2024-01-11T00:29:45;9.98;;;3.92;;
43662;SDS011;74813;56.104;40.358;2024-01-11T00:32:18;16.17;;;4.68;;
43662;SDS011;74813;56.104;40.358;2024-01-11T00:34:50;11.40;;;4.35;;
43662;SDS011;74813;56.104;40.358;2024-01-11T00:37:22;14.25;;;4.60;;
43662;SDS011;74813;56.104;40.358;2024-01-11T00:39:55;13.00;;;5.00;;
43662;SDS011;74813;56.104;40.358;2024-01-11T00:42:27;11.57;;;4.10;;
43662;SDS011;74813;56.104;40.358;2024-01-11T00:45:00;11.13;;;4.03;;
43662;SDS011;74813;56.104;40.358;2024-01-11T00:47:32;19.08;;;6.05;;
43662;SDS011;74813;56.104;40.358;2024-01-11T00:50:05;13.18;;;5.43;;
43662;SDS011;74813;56.104;40.358;2024-01-11T00:52:37;11.27;;;4.68;;
43662;SDS011;74813;56.104;40.358;2024-01-11T00:55:10;10.63;;;4.25;;
43662;SDS011;74813;56.104;40.358;2024-01-11T00:57:42;10.52;;;4.07;;
43662;SDS011;74813;56.104;40.358;2024-01-11T01:00:14;11.88;;;3.92;;
43662;SDS011;74813;56.104;40.358;2024-01-11T01:02:47;11.88;;;3.85;;
43662;SDS011;74813;56.104;40.358;2024-01-11T01:05:19;9.85;;;3.38;;
43662;SDS011;74813;56.104;40.358;2024-01-11T01:07:52;10.75;;;3.78;;
43662;SDS011;74813;56.104;40.358;2024-01-11T01:10:24;11.80;;;3.85;;
43662;SDS011;74813;56.104;40.358;2024-01-11T01:12:56;12.93;;;4.15;;
43662;SDS011;74813;56.104;40.358;2024-01-11T01:15:29;10.65;;;3.75;;
43662;SDS011;74813;56.104;40.358;2024-01-11T01:18:01;9.30;;;3.60;;
43662;SDS011;74813;56.104;40.358;2024-01-11T01:20:34;14.80;;;3.83;;
43662;SDS011;74813;56.104;40.358;2024-01-11T01:23:06;17.30;;;4.55;;
43662;SDS011;74813;56.104;40.358;2024-01-11T01:25:38;9.35;;;2.65;;
43662;SDS011;74813;56.104;40.358;2024-01-11T01:28:11;13.32;;;4.53;;
43662;SDS011;74813;56.104;40.358;2024-01-11T01:30:43;12.73;;;3.85;;
43662;SDS011;74813;56.104;40.358;2024-01-11T01:33:15;15.52;;;4.07;;
43662;SDS011;74813;56.104;40.358;2024-01-11T01:35:48;15.02;;;4.25;;
43662;SDS011;74813;56.104;40.358;2024-01-11T01:38:20;12.85;;;3.88;;
43662;SDS011;74813;56.104;40.358;2024-01-11T01:40:53;13.18;;;3.58;;
43662;SDS011;74813;56.104;40.358;2024-01-11T01:43:25;10.52;;;4.30;;
43662;SDS011;74813;56.104;40.358;2024-01-11T01:45:57;10.88;;;3.80;;
43662;SDS011;74813;56.104;40.358;2024-01-11T01:48:30;11.93;;;3.90;;
43662;SDS011;74813;56.104;40.358;2024-01-11T01:51:03;13.60;;;5.25;;
43662;SDS011;74813;56.104;40.358;2024-01-11T01:53:37;15.98;;;5.10;;
43662;SDS011;74813;56.104;40.358;2024-01-11T01:56:09;14.30;;;4.90;;
43662;SDS011;74813;56.104;40.358;2024-01-11T01:58:43;14.23;;;4.05;;
43662;SDS011;74813;56.104;40.358;2024-01-11T02:01:15;12.70;;;3.72;;
43662;SDS011;74813;56.104;40.358;2024-01-11T02:03:49;17.23;;;7.07;;
43662;SDS011;74813;56.104;40.358;2024-01-11T02:06:23;12.88;;;5.95;;
43662;SDS011;74813;56.104;40.358;2024-01-11T02:08:57;21.73;;;8.48;;
43662;SDS011;74813;56.104;40.358;2024-01-11T02:11:31;23.85;;;9.55;;
43662;SDS011;74813;56.104;40.358;2024-01-11T02:14:03;18.23;;;6.57;;
43662;SDS011;74813;56.104;40.358;2024-01-11T02:16:36;19.48;;;5.18;;
43662;SDS011;74813;56.104;40.358;2024-01-11T02:19:10;13.43;;;5.50;;
43662;SDS011;74813;56.104;40.358;2024-01-11T02:21:46;14.80;;;4.88;;
43662;SDS011;74813;56.104;40.358;2024-01-11T02:24:20;15.02;;;4.40;;
43662;SDS011;74813;56.104;40.358;2024-01-11T02:29:32;17.58;;;4.32;;
43662;SDS011;74813;56.104;40.358;2024-01-11T02:32:04;9.35;;;3.15;;
43662;SDS011;74813;56.104;40.358;2024-01-11T02:34:36;11.70;;;4.25;;
43662;SDS011;74813;56.104;40.358;2024-01-11T02:37:09;10.75;;;3.95;;
43662;SDS011;74813;56.104;40.358;2024-01-11T02:39:42;11.45;;;3.10;;
43662;SDS011;74813;56.104;40.358;2024-01-11T02:42:14;9.48;;;3.47;;
43662;SDS011;74813;56.104;40.358;2024-01-11T02:44:47;10.77;;;3.67;;
43662;SDS011;74813;56.104;40.358;2024-01-11T02:47:19;13.52;;;3.78;;
43662;SDS011;74813;56.104;40.358;2024-01-11T02:49:51;11.10;;;4.07;;
43662;SDS011;74813;56.104;40.358;2024-01-11T02:52:24;8.88;;;3.42;;
43662;SDS011;74813;56.104;40.358;2024-01-11T02:54:57;10.40;;;3.78;;
43662;SDS011;74813;56.104;40.358;2024-01-11T02:57:29;13.30;;;3.92;;
43662;SDS011;74813;56.104;40.358;2024-01-11T03:00:02;12.40;;;3.25;;
43662;SDS011;74813;56.104;40.358;2024-01-11T03:02:37;11.85;;;3.90;;
43662;SDS011;74813;56.104;40.358;2024-01-11T03:05:10;11.27;;;2.78;;
43662;SDS011;74813;56.104;40.358;2024-01-11T03:07:42;9.55;;;2.88;;
43662;SDS011;74813;56.104;40.358;2024-01-11T03:10:15;12.00;;;4.13;;
43662;SDS011;74813;56.104;40.358;2024-01-11T03:12:47;13.52;;;3.45;;
43662;SDS011;74813;56.104;40.358;2024-01-11T03:15:20;12.63;;;3.83;;
43662;SDS011;74813;56.104;40.358;2024-01-11T03:17:53;10.45;;;3.42;;
43662;SDS011;74813;56.104;40.358;2024-01-11T03:20:25;14.75;;;4.53;;
43662;SDS011;74813;56.104;40.358;2024-01-11T03:22:57;11.68;;;4.75;;
43662;SDS011;74813;56.104;40.358;2024-01-11T03:25:30;9.40;;;3.83;;
43662;SDS011;74813;56.104;40.358;2024-01-11T03:28:02;19.40;;;4.57;;
43662;SDS011;74813;56.104;40.358;2024-01-11T03:30:35;9.98;;;4.20;;
43662;SDS011;74813;56.104;40.358;2024-01-11T03:33:07;11.98;;;5.30;;
43662;SDS011;74813;56.104;40.358;2024-01-11T03:35:40;15.07;;;5.00;;
43662;SDS011;74813;56.104;40.358;2024-01-11T03:38:12;12.68;;;4.93;;
43662;SDS011;74813;56.104;40.358;2024-01-11T03:40:44;11.30;;;4.40;;
43662;SDS011;74813;56.104;40.358;2024-01-11T03:43:17;12.02;;;3.97;;
43662;SDS011;74813;56.104;40.358;2024-01-11T03:45:50;15.10;;;4.68;;
43662;SDS011;74813;56.104;40.358;2024-01-11T03:48:22;12.50;;;4.57;;
43662;SDS011;74813;56.104;40.358;2024-01-11T03:50:54;8.93;;;3.25;;
43662;SDS011;74813;56.104;40.358;2024-01-11T03:53:27;13.70;;;4.38;;
43662;SDS011;74813;56.104;40.358;2024-01-11T03:56:00;11.30;;;4.53;;
43662;SDS011;74813;56.104;40.358;2024-01-11T03:58:32;10.00;;;3.88;;
43662;SDS011;74813;56.104;40.358;2024-01-11T04:01:04;15.38;;;5.40;;
43662;SDS011;74813;56.104;40.358;2024-01-11T04:03:37;11.07;;;4.40;;
43662;SDS011;74813;56.104;40.358;2024-01-11T04:06:18;11.20;;;5.38;;
43662;SDS011;74813;56.104;40.358;2024-01-11T04:08:51;12.85;;;4.57;;
43662;SDS011;74813;56.104;40.358;2024-01-11T04:11:26;10.73;;;3.17;;
43662;SDS011;74813;56.104;40.358;2024-01-11T04:13:59;15.63;;;5.32;;
43662;SDS011;74813;56.104;40.358;2024-01-11T04:16:32;17.23;;;5.07;;
43662;SDS011;74813;56.104;40.358;2024-01-11T04:19:04;11.65;;;4.25;;
43662;SDS011;74813;56.104;40.358;2024-01-11T04:21:36;20.58;;;6.07;;
43662;SDS011;74813;56.104;40.358;2024-01-11T04:24:09;15.00;;;5.50;;
43662;SDS011;74813;56.104;40.358;2024-01-11T04:26:41;16.65;;;6.13;;
43662;SDS011;74813;56.104;40.358;2024-01-11T04:29:14;14.52;;;4.80;;
43662;SDS011;74813;56.104;40.358;2024-01-11T04:31:46;17.63;;;4.72;;
43662;SDS011;74813;56.104;40.358;2024-01-11T04:34:18;12.63;;;4.63;;
43662;SDS011;74813;56.104;40.358;2024-01-11T04:36:51;18.00;;;5.40;;
43662;SDS011;74813;56.104;40.358;2024-01-11T04:39:23;14.90;;;5.22;;
43662;SDS011;74813;56.104;40.358;2024-01-11T04:41:56;11.68;;;4.47;;
43662;SDS011;74813;56.104;40.358;2024-01-11T04:44:28;15.10;;;5.32;;
43662;SDS011;74813;56.104;40.358;2024-01-11T04:47:00;14.63;;;4.78;;
43662;SDS011;74813;56.104;40.358;2024-01-11T04:49:33;10.68;;;4.90;;
43662;SDS011;74813;56.104;40.358;2024-01-11T04:52:05;15.50;;;5.47;;
43662;SDS011;74813;56.104;40.358;2024-01-11T04:54:37;17.77;;;5.95;;
43662;SDS011;74813;56.104;40.358;2024-01-11T04:57:10;19.23;;;6.18;;
43662;SDS011;74813;56.104;40.358;2024-01-11T04:59:42;18.27;;;7.25;;
43662;SDS011;74813;56.104;40.358;2024-01-11T05:02:15;20.08;;;6.47;;
43662;SDS011;74813;56.104;40.358;2024-01-11T05:04:47;16.10;;;5.85;;
43662;SDS011;74813;56.104;40.358;2024-01-11T05:07:20;14.80;;;5.72;;
43662;SDS011;74813;56.104;40.358;2024-01-11T05:09:52;17.90;;;6.00;;
43662;SDS011;74813;56.104;40.358;2024-01-11T05:12:25;17.00;;;6.25;;
43662;SDS011;74813;56.104;40.358;2024-01-11T05:14:57;17.25;;;6.43;;
43662;SDS011;74813;56.104;40.358;2024-01-11T05:17:29;13.70;;;5.97;;
43662;SDS011;74813;56.104;40.358;2024-01-11T05:20:02;14.35;;;5.55;;
43662;SDS011;74813;56.104;40.358;2024-01-11T05:22:37;15.98;;;6.47;;
43662;SDS011;74813;56.104;40.358;2024-01-11T05:25:09;16.30;;;5.72;;
43662;SDS011;74813;56.104;40.358;2024-01-11T05:27:42;21.55;;;6.00;;
43662;SDS011;74813;56.104;40.358;2024-01-11T05:30:14;17.25;;;6.57;;
43662;SDS011;74813;56.104;40.358;2024-01-11T05:32:46;18.30;;;7.30;;
43662;SDS011;74813;56.104;40.358;2024-01-11T05:35:19;17.08;;;7.05;;
43662;SDS011;74813;56.104;40.358;2024-01-11T05:37:51;16.38;;;7.38;;
43662;SDS011;74813;56.104;40.358;2024-01-11T05:40:23;15.90;;;6.10;;
43662;SDS011;74813;56.104;40.358;2024-01-11T05:42:56;17.58;;;7.25;;
43662;SDS011;74813;56.104;40.358;2024-01-11T05:45:28;18.20;;;6.85;;
43662;SDS011;74813;56.104;40.358;2024-01-11T05:48:01;19.48;;;8.02;;
43662;SDS011;74813;56.104;40.358;2024-01-11T05:50:33;23.60;;;7.35;;
43662;SDS011;74813;56.104;40.358;2024-01-11T05:53:06;23.10;;;8.30;;
43662;SDS011;74813;56.104;40.358;2024-01-11T05:55:38;20.08;;;7.70;;
43662;SDS011;74813;56.104;40.358;2024-01-11T05:58:11;21.55;;;7.22;;
43662;SDS011;74813;56.104;40.358;2024-01-11T06:00:43;16.17;;;6.03;;
43662;SDS011;74813;56.104;40.358;2024-01-11T06:03:16;20.38;;;6.72;;
43662;SDS011;74813;56.104;40.358;2024-01-11T06:05:48;15.63;;;6.18;;
43662;SDS011;74813;56.104;40.358;2024-01-11T06:08:20;24.75;;;7.90;;
43662;SDS011;74813;56.104;40.358;2024-01-11T06:10:53;20.33;;;7.10;;
43662;SDS011;74813;56.104;40.358;2024-01-11T06:13:25;16.70;;;6.47;;
43662;SDS011;74813;56.104;40.358;2024-01-11T06:15:58;14.10;;;6.28;;
43662;SDS011;74813;56.104;40.358;2024-01-11T06:18:30;22.48;;;8.32;;
43662;SDS011;74813;56.104;40.358;2024-01-11T06:21:02;24.23;;;8.88;;
43662;SDS011;74813;56.104;40.358;2024-01-11T06:23:35;17.65;;;6.22;;
43662;SDS011;74813;56.104;40.358;2024-01-11T06:26:07;19.92;;;8.02;;
43662;SDS011;74813;56.104;40.358;2024-01-11T06:28:40;20.23;;;7.10;;
43662;SDS011;74813;56.104;40.358;2024-01-11T06:31:12;18.80;;;7.32;;
43662;SDS011;74813;56.104;40.358;2024-01-11T06:33:45;21.83;;;7.53;;
43662;SDS011;74813;56.104;40.358;2024-01-11T06:36:17;18.70;;;7.95;;
43662;SDS011;74813;56.104;40.358;2024-01-11T06:38:49;21.23;;;7.43;;
43662;SDS011;74813;56.104;40.358;2024-01-11T06:41:22;20.63;;;7.32;;
43662;SDS011;74813;56.104;40.358;2024-01-11T06:43:54;18.65;;;7.20;;
43662;SDS011;74813;56.104;40.358;2024-01-11T06:46:26;21.23;;;8.05;;
43662;SDS011;74813;56.104;40.358;2024-01-11T06:48:59;20.35;;;8.38;;
43662;SDS011;74813;56.104;40.358;2024-01-11T06:51:31;21.35;;;7.50;;
43662;SDS011;74813;56.104;40.358;2024-01-11T06:54:03;22.48;;;8.55;;
43662;SDS011;74813;56.104;40.358;2024-01-11T06:56:36;18.75;;;7.50;;
43662;SDS011;74813;56.104;40.358;2024-01-11T06:59:08;17.58;;;7.93;;
43662;SDS011;74813;56.104;40.358;2024-01-11T07:01:40;19.95;;;7.35;;
43662;SDS011;74813;56.104;40.358;2024-01-11T07:04:13;20.50;;;7.88;;
43662;SDS011;74813;56.104;40.358;2024-01-11T07:06:45;18.15;;;7.65;;
43662;SDS011;74813;56.104;40.358;2024-01-11T07:09:18;20.83;;;7.47;;
43662;SDS011;74813;56.104;40.358;2024-01-11T07:11:50;18.33;;;6.75;;
43662;SDS011;74813;56.104;40.358;2024-01-11T07:14:22;14.93;;;6.53;;
43662;SDS011;74813;56.104;40.358;2024-01-11T07:16:55;18.88;;;6.88;;
43662;SDS011;74813;56.104;40.358;2024-01-11T07:19:27;22.75;;;8.65;;
43662;SDS011;74813;56.104;40.358;2024-01-11T07:22:00;19.23;;;7.22;;
43662;SDS011;74813;56.104;40.358;2024-01-11T07:24:32;19.45;;;8.10;;
43662;SDS011;74813;56.104;40.358;2024-01-11T07:27:05;17.77;;;7.28;;
43662;SDS011;74813;56.104;40.358;2024-01-11T07:29:37;20.83;;;8.80;;
43662;SDS011;74813;56.104;40.358;2024-01-11T07:32:10;19.48;;;7.80;;
43662;SDS011;74813;56.104;40.358;2024-01-11T07:34:42;16.77;;;7.13;;
43662;SDS011;74813;56.104;40.358;2024-01-11T07:37:15;19.73;;;7.68;;
43662;SDS011;74813;56.104;40.358;2024-01-11T07:39:47;19.85;;;7.90;;
43662;SDS011;74813;56.104;40.358;2024-01-11T07:42:19;18.40;;;7.07;;
43662;SDS011;74813;56.104;40.358;2024-01-11T07:44:52;22.58;;;8.95;;
43662;SDS011;74813;56.104;40.358;2024-01-11T07:47:24;20.73;;;8.15;;
43662;SDS011;74813;56.104;40.358;2024-01-11T07:49:56;19.92;;;7.57;;
43662;SDS011;74813;56.104;40.358;2024-01-11T07:52:29;18.88;;;8.38;;
43662;SDS011;74813;56.104;40.358;2024-01-11T07:55:02;20.08;;;8.55;;
43662;SDS011;74813;56.104;40.358;2024-01-11T07:57:38;21.73;;;8.27;;
43662;SDS011;74813;56.104;40.358;2024-01-11T08:00:11;23.58;;;9.02;;
43662;SDS011;74813;56.104;40.358;2024-01-11T08:02:44;19.45;;;8.32;;
43662;SDS011;74813;56.104;40.358;2024-01-11T08:05:16;25.52;;;8.63;;
43662;SDS011;74813;56.104;40.358;2024-01-11T08:07:49;19.27;;;8.55;;
43662;SDS011;74813;56.104;40.358;2024-01-11T08:10:21;18.48;;;8.27;;
43662;SDS011;74813;56.104;40.358;2024-01-11T08:12:53;22.38;;;8.80;;
43662;SDS011;74813;56.104;40.358;2024-01-11T08:15:26;23.50;;;8.65;;
43662;SDS011;74813;56.104;40.358;2024-01-11T08:17:58;20.80;;;8.73;;
43662;SDS011;74813;56.104;40.358;2024-01-11T08:20:31;21.15;;;9.23;;
43662;SDS011;74813;56.104;40.358;2024-01-11T08:23:03;21.02;;;9.00;;
43662;SDS011;74813;56.104;40.358;2024-01-11T08:25:35;20.73;;;9.13;;
43662;SDS011;74813;56.104;40.358;2024-01-11T08:28:08;20.20;;;9.30;;
43662;SDS011;74813;56.104;40.358;2024-01-11T08:30:40;21.48;;;9.43;;
43662;SDS011;74813;56.104;40.358;2024-01-11T08:33:13;23.33;;;10.38;;
43662;SDS011;74813;56.104;40.358;2024-01-11T08:35:45;18.73;;;8.93;;
43662;SDS011;74813;56.104;40.358;2024-01-11T08:38:17;29.63;;;15.55;;
43662;SDS011;74813;56.104;40.358;2024-01-11T08:40:50;36.40;;;19.45;;
43662;SDS011;74813;56.104;40.358;2024-01-11T08:43:23;37.92;;;19.88;;
43662;SDS011;74813;56.104;40.358;2024-01-11T08:45:55;34.03;;;17.52;;
43662;SDS011;74813;56.104;40.358;2024-01-11T08:48:28;39.40;;;19.00;;
43662;SDS011;74813;56.104;40.358;2024-01-11T08:51:00;36.38;;;18.33;;
43662;SDS011;74813;56.104;40.358;2024-01-11T08:53:32;24.85;;;10.90;;
43662;SDS011;74813;56.104;40.358;2024-01-11T08:56:05;19.63;;;10.50;;
43662;SDS011;74813;56.104;40.358;2024-01-11T08:58:37;14.95;;;7.00;;
43662;SDS011;74813;56.104;40.358;2024-01-11T09:01:12;14.50;;;6.43;;
43662;SDS011;74813;56.104;40.358;2024-01-11T09:03:44;8.95;;;3.38;;
43662;SDS011;74813;56.104;40.358;2024-01-11T09:06:17;7.13;;;2.80;;
43662;SDS011;74813;56.104;40.358;2024-01-11T09:08:49;6.07;;;2.30;;
43662;SDS011;74813;56.104;40.358;2024-01-11T09:11:21;10.77;;;2.70;;
43662;SDS011;74813;56.104;40.358;2024-01-11T09:13:54;9.75;;;2.83;;
43662;SDS011;74813;56.104;40.358;2024-01-11T09:16:26;8.52;;;3.08;;
43662;SDS011;74813;56.104;40.358;2024-01-11T09:18:58;8.23;;;3.15;;
43662;SDS011;74813;56.104;40.358;2024-01-11T09:21:31;10.40;;;3.80;;
43662;SDS011;74813;56.104;40.358;2024-01-11T09:24:03;12.88;;;4.70;;
43662;SDS011;74813;56.104;40.358;2024-01-11T09:26:36;9.18;;;3.63;;
43662;SDS011;74813;56.104;40.358;2024-01-11T09:29:08;10.13;;;3.97;;
43662;SDS011;74813;56.104;40.358;2024-01-11T09:31:41;9.43;;;3.78;;
43662;SDS011;74813;56.104;40.358;2024-01-11T09:34:13;10.57;;;3.72;;
43662;SDS011;74813;56.104;40.358;2024-01-11T09:36:45;10.32;;;4.28;;
43662;SDS011;74813;56.104;40.358;2024-01-11T09:39:18;12.63;;;4.88;;
43662;SDS011;74813;56.104;40.358;2024-01-11T09:41:51;11.45;;;3.70;;
43662;SDS011;74813;56.104;40.358;2024-01-11T09:44:30;11.07;;;4.15;;
43662;SDS011;74813;56.104;40.358;2024-01-11T09:47:02;12.35;;;4.25;;
43662;SDS011;74813;56.104;40.358;2024-01-11T09:49:36;11.68;;;4.05;;
43662;SDS011;74813;56.104;40.358;2024-01-11T09:52:11;10.98;;;4.78;;
43662;SDS011;74813;56.104;40.358;2024-01-11T09:54:44;9.65;;;3.08;;
43662;SDS011;74813;56.104;40.358;2024-01-11T09:57:18;8.05;;;3.20;;
43662;SDS011;74813;56.104;40.358;2024-01-11T09:59:57;6.47;;;2.10;;
43662;SDS011;74813;56.104;40.358;2024-01-11T10:02:30;10.95;;;3.40;;
43662;SDS011;74813;56.104;40.358;2024-01-11T10:05:02;8.98;;;2.25;;
43662;SDS011;74813;56.104;40.358;2024-01-11T10:07:35;7.40;;;2.25;;
43662;SDS011;74813;56.104;40.358;2024-01-11T10:10:09;10.68;;;2.90;;
43662;SDS011;74813;56.104;40.358;2024-01-11T10:12:41;7.45;;;2.50;;
43662;SDS011;74813;56.104;40.358;2024-01-11T10:15:14;7.38;;;2.08;;
43662;SDS011;74813;56.104;40.358;2024-01-11T10:17:46;6.65;;;2.03;;
43662;SDS011;74813;56.104;40.358;2024-01-11T10:20:19;8.60;;;2.53;;
43662;SDS011;74813;56.104;40.358;2024-01-11T10:22:52;7.95;;;2.67;;
43662;SDS011;74813;56.104;40.358;2024-01-11T10:25:24;6.05;;;2.10;;
43662;SDS011;74813;56.104;40.358;2024-01-11T10:27:57;8.75;;;2.03;;
43662;SDS011;74813;56.104;40.358;2024-01-11T10:30:30;7.90;;;1.70;;
43662;SDS011;74813;56.104;40.358;2024-01-11T10:33:02;5.80;;;1.77;;
43662;SDS011;74813;56.104;40.358;2024-01-11T10:35:35;7.57;;;2.00;;
43662;SDS011;74813;56.104;40.358;2024-01-11T10:38:09;6.38;;;1.50;;
43662;SDS011;74813;56.104;40.358;2024-01-11T10:40:42;6.78;;;1.88;;
43662;SDS011;74813;56.104;40.358;2024-01-11T10:43:18;6.18;;;2.38;;
43662;SDS011;74813;56.104;40.358;2024-01-11T10:45:53;6.30;;;1.92;;
43662;SDS011;74813;56.104;40.358;2024-01-11T10:52:01;8.38;;;2.05;;
43662;SDS011;74813;56.104;40.358;2024-01-11T10:54:34;11.88;;;3.95;;
43662;SDS011;74813;56.104;40.358;2024-01-11T10:57:08;9.98;;;2.75;;
43662;SDS011;74813;56.104;40.358;2024-01-11T10:59:42;9.05;;;3.15;;
43662;SDS011;74813;56.104;40.358;2024-01-11T11:02:16;7.63;;;2.03;;
43662;SDS011;74813;56.104;40.358;2024-01-11T11:04:51;10.90;;;3.03;;
43662;SDS011;74813;56.104;40.358;2024-01-11T11:07:25;13.90;;;2.90;;
43662;SDS011;74813;56.104;40.358;2024-01-11T11:09:57;11.40;;;2.63;;
43662;SDS011;74813;56.104;40.358;2024-01-11T11:12:32;4.72;;;1.55;;
43662;SDS011;74813;56.104;40.358;2024-01-11T11:15:05;4.97;;;1.33;;
43662;SDS011;74813;56.104;40.358;2024-01-11T11:17:39;8.05;;;1.48;;
43662;SDS011;74813;56.104;40.358;2024-01-11T11:20:12;5.47;;;1.30;;
43662;SDS011;74813;56.104;40.358;2024-01-11T11:23:04;8.45;;;1.45;;
43662;SDS011;74813;56.104;40.358;2024-01-11T11:25:41;4.50;;;1.10;;
43662;SDS011;74813;56.104;40.358;2024-01-11T11:28:13;2.78;;;0.88;;
43662;SDS011;74813;56.104;40.358;2024-01-11T11:30:48;5.75;;;1.92;;
43662;SDS011;74813;56.104;40.358;2024-01-11T11:33:23;4.35;;;1.00;;
43662;SDS011;74813;56.104;40.358;2024-01-11T11:35:59;10.35;;;1.00;;
43662;SDS011;74813;56.104;40.358;2024-01-11T11:38:31;2.60;;;0.73;;
43662;SDS011;74813;56.104;40.358;2024-01-11T11:41:03;4.35;;;0.90;;
43662;SDS011;74813;56.104;40.358;2024-01-11T11:43:36;4.05;;;1.25;;
43662;SDS011;74813;56.104;40.358;2024-01-11T11:46:08;3.33;;;0.60;;
43662;SDS011;74813;56.104;40.358;2024-01-11T11:51:17;3.88;;;1.00;;
43662;SDS011;74813;56.104;40.358;2024-01-11T11:53:51;3.00;;;0.90;;
43662;SDS011;74813;56.104;40.358;2024-01-11T11:56:24;3.50;;;0.75;;
43662;SDS011;74813;56.104;40.358;2024-01-11T11:58:56;5.47;;;0.98;;
43662;SDS011;74813;56.104;40.358;2024-01-11T12:01:29;3.90;;;1.05;;
43662;SDS011;74813;56.104;40.358;2024-01-11T12:04:03;7.53;;;1.33;;
43662;SDS011;74813;56.104;40.358;2024-01-11T12:06:35;4.40;;;1.35;;
43662;SDS011;74813;56.104;40.358;2024-01-11T12:09:09;9.55;;;1.70;;
43662;SDS011;74813;56.104;40.358;2024-01-11T12:11:41;7.15;;;1.90;;
43662;SDS011;74813;56.104;40.358;2024-01-11T12:14:14;9.02;;;2.05;;
43662;SDS011;74813;56.104;40.358;2024-01-11T12:16:55;7.03;;;2.38;;
43662;SDS011;74813;56.104;40.358;2024-01-11T12:19:29;5.90;;;1.90;;
43662;SDS011;74813;56.104;40.358;2024-01-11T12:22:01;5.93;;;1.55;;
43662;SDS011;74813;56.104;40.358;2024-01-11T12:24:37;6.70;;;1.88;;
43662;SDS011;74813;56.104;40.358;2024-01-11T12:27:09;5.28;;;1.48;;
43662;SDS011;74813;56.104;40.358;2024-01-11T12:29:42;8.73;;;2.50;;
43662;SDS011;74813;56.104;40.358;2024-01-11T12:32:14;7.28;;;2.00;;
43662;SDS011;74813;56.104;40.358;2024-01-11T12:34:47;8.98;;;2.47;;
43662;SDS011;74813;56.104;40.358;2024-01-11T12:37:21;8.40;;;2.03;;
43662;SDS011;74813;56.104;40.358;2024-01-11T12:39:57;8.10;;;2.20;;
43662;SDS011;74813;56.104;40.358;2024-01-11T12:42:30;8.93;;;2.97;;
43662;SDS011;74813;56.104;40.358;2024-01-11T12:45:02;12.02;;;2.50;;
43662;SDS011;74813;56.104;40.358;2024-01-11T12:47:36;12.05;;;4.30;;
43662;SDS011;74813;56.104;40.358;2024-01-11T12:50:09;8.43;;;2.53;;
43662;SDS011;74813;56.104;40.358;2024-01-11T12:52:41;10.73;;;2.50;;
43662;SDS011;74813;56.104;40.358;2024-01-11T12:55:18;8.10;;;2.22;;
43662;SDS011;74813;56.104;40.358;2024-01-11T12:58:02;6.22;;;1.98;;
43662;SDS011;74813;56.104;40.358;2024-01-11T13:00:36;9.07;;;2.08;;
43662;SDS011;74813;56.104;40.358;2024-01-11T13:03:10;5.78;;;1.88;;
43662;SDS011;74813;56.104;40.358;2024-01-11T13:05:42;5.57;;;1.20;;
43662;SDS011;74813;56.104;40.358;2024-01-11T13:08:15;4.68;;;1.10;;
43662;SDS011;74813;56.104;40.358;2024-01-11T13:10:47;4.03;;;1.02;;
43662;SDS011;74813;56.104;40.358;2024-01-11T13:13:20;2.58;;;0.68;;
43662;SDS011;74813;56.104;40.358;2024-01-11T13:15:52;3.22;;;0.47;;
43662;SDS011;74813;56.104;40.358;2024-01-11T13:18:25;2.63;;;1.10;;
43662;SDS011;74813;56.104;40.358;2024-01-11T13:20:57;3.05;;;0.60;;
43662;SDS011;74813;56.104;40.358;2024-01-11T13:23:29;4.82;;;0.65;;
43662;SDS011;74813;56.104;40.358;2024-01-11T13:26:02;6.13;;;1.38;;
43662;SDS011;74813;56.104;40.358;2024-01-11T13:28:34;2.70;;;0.70;;
43662;SDS011;74813;56.104;40.358;2024-01-11T13:31:06;4.75;;;1.05;;
43662;SDS011;74813;56.104;40.358;2024-01-11T13:33:39;6.30;;;0.90;;
43662;SDS011;74813;56.104;40.358;2024-01-11T13:36:11;3.58;;;0.70;;
43662;SDS011;74813;56.104;40.358;2024-01-11T13:38:44;3.78;;;0.90;;
43662;SDS011;74813;56.104;40.358;2024-01-11T13:41:16;4.85;;;1.10;;
43662;SDS011;74813;56.104;40.358;2024-01-11T13:43:49;3.95;;;0.70;;
43662;SDS011;74813;56.104;40.358;2024-01-11T13:46:21;5.32;;;1.20;;
43662;SDS011;74813;56.104;40.358;2024-01-11T13:48:53;4.95;;;1.65;;
43662;SDS011;74813;56.104;40.358;2024-01-11T13:51:26;6.68;;;1.17;;
43662;SDS011;74813;56.104;40.358;2024-01-11T13:53:58;5.63;;;1.50;;
43662;SDS011;74813;56.104;40.358;2024-01-11T13:56:30;3.92;;;1.00;;
43662;SDS011;74813;56.104;40.358;2024-01-11T13:59:03;4.65;;;0.98;;
43662;SDS011;74813;56.104;40.358;2024-01-11T14:01:35;3.88;;;0.95;;
43662;SDS011;74813;56.104;40.358;2024-01-11T14:04:08;9.05;;;1.90;;
43662;SDS011;74813;56.104;40.358;2024-01-11T14:06:40;7.38;;;1.40;;
43662;SDS011;74813;56.104;40.358;2024-01-11T14:09:12;8.20;;;1.92;;
43662;SDS011;74813;56.104;40.358;2024-01-11T14:11:45;5.53;;;1.63;;
43662;SDS011;74813;56.104;40.358;2024-01-11T14:14:17;6.47;;;2.10;;
43662;SDS011;74813;56.104;40.358;2024-01-11T14:16:50;6.40;;;1.63;;
43662;SDS011;74813;56.104;40.358;2024-01-11T14:19:22;7.13;;;1.63;;
43662;SDS011;74813;56.104;40.358;2024-01-11T14:21:54;6.75;;;2.10;;
43662;SDS011;74813;56.104;40.358;2024-01-11T14:24:27;5.70;;;1.80;;
43662;SDS011;74813;56.104;40.358;2024-01-11T14:27:00;6.38;;;1.10;;
43662;SDS011;74813;56.104;40.358;2024-01-11T14:29:32;6.40;;;2.22;;
43662;SDS011;74813;56.104;40.358;2024-01-11T14:32:04;6.63;;;1.73;;
43662;SDS011;74813;56.104;40.358;2024-01-11T14:34:37;4.75;;;1.10;;
43662;SDS011;74813;56.104;40.358;2024-01-11T14:37:10;6.25;;;1.55;;
43662;SDS011;74813;56.104;40.358;2024-01-11T14:39:43;6.43;;;1.38;;
43662;SDS011;74813;56.104;40.358;2024-01-11T14:42:15;6.88;;;1.67;;
43662;SDS011;74813;56.104;40.358;2024-01-11T14:44:48;5.95;;;1.58;;
43662;SDS011;74813;56.104;40.358;2024-01-11T14:47:20;9.02;;;1.73;;
43662;SDS011;74813;56.104;40.358;2024-01-11T14:49:53;7.30;;;1.50;;
43662;SDS011;74813;56.104;40.358;2024-01-11T14:52:26;7.07;;;1.13;;
43662;SDS011;74813;56.104;40.358;2024-01-11T14:54:58;4.57;;;1.08;;
43662;SDS011;74813;56.104;40.358;2024-01-11T14:57:30;3.65;;;0.80;;
43662;SDS011;74813;56.104;40.358;2024-01-11T15:00:03;5.80;;;0.80;;
43662;SDS011;74813;56.104;40.358;2024-01-11T15:02:36;2.90;;;0.77;;
43662;SDS011;74813;56.104;40.358;2024-01-11T15:05:09;3.72;;;0.73;;
43662;SDS011;74813;56.104;40.358;2024-01-11T15:07:41;4.10;;;0.73;;